sensor_id;sensor_type;location;lat;lon;timestamp;pressure;altitude;pressure_sealevel;temperature;humidity
11001;BME280;5553;48.506;8.870;2022-10-16T00:01:39;96481.09;;;13.44;100.00
11001;BME280;5553;48.506;8.870;2022-10-16T00:04:08;96485.16;;;13.40;100.00
11001;BME280;5553;48.506;8.870;2022-10-16T00:06:37;96483.53;;;13.45;100.00
11001;BME280;5553;48.506;8.870;2022-10-16T00:09:08;96483.50;;;13.52;100.00
11001;BME280;5553;48.506;8.870;2022-10-16T00:11:39;96479.72;;;13.73;100.00
11001;BME280;5553;48.506;8.870;2022-10-16T00:14:10;96477.38;;;13.51;100.00
11001;BME280;5553;48.506;8.870;2022-10-16T00:16:39;96477.28;;;13.26;100.00
11001;BME280;5553;48.506;8.870;2022-10-16T00:19:09;96482.59;;;13.26;100.00
11001;BME280;5553;48.506;8.870;2022-10-16T00:21:38;96486.03;;;13.14;100.00
11001;BME280;5553;48.506;8.870;2022-10-16T00:24:10;96495.59;;;13.15;100.00
11001;BME280;5553;48.506;8.870;2022-10-16T00:26:39;96499.31;;;13.07;100.00
11001;BME280;5553;48.506;8.870;2022-10-16T00:29:08;96500.13;;;13.01;100.00
11001;BME280;5553;48.506;8.870;2022-10-16T00:31:36;96504.22;;;12.90;100.00
11001;BME280;5553;48.506;8.870;2022-10-16T00:34:05;96513.78;;;12.85;100.00
11001;BME280;5553;48.506;8.870;2022-10-16T00:36:33;96517.69;;;12.82;100.00
11001;BME280;5553;48.506;8.870;2022-10-16T00:39:02;96514.19;;;12.88;100.00
11001;BME280;5553;48.506;8.870;2022-10-16T00:41:33;96513.78;;;12.85;100.00
11001;BME280;5553;48.506;8.870;2022-10-16T00:44:03;96517.47;;;12.84;100.00
11001;BME280;5553;48.506;8.870;2022-10-16T00:46:35;96515.22;;;12.87;100.00
11001;BME280;5553;48.506;8.870;2022-10-16T00:49:06;96523.56;;;12.84;100.00
11001;BME280;5553;48.506;8.870;2022-10-16T00:51:37;96525.41;;;12.84;100.00
11001;BME280;5553;48.506;8.870;2022-10-16T00:54:09;96519.50;;;12.68;100.00
11001;BME280;5553;48.506;8.870;2022-10-16T00:56:41;96526.63;;;12.68;100.00
11001;BME280;5553;48.506;8.870;2022-10-16T00:59:14;96527.25;;;12.63;100.00
11001;BME280;5553;48.506;8.870;2022-10-16T01:01:43;96538.22;;;12.60;100.00
11001;BME280;5553;48.506;8.870;2022-10-16T01:04:11;96549.22;;;12.57;100.00
11001;BME280;5553;48.506;8.870;2022-10-16T01:06:46;96549.22;;;12.50;100.00
11001;BME280;5553;48.506;8.870;2022-10-16T01:09:21;96557.38;;;12.49;100.00
11001;BME280;5553;48.506;8.870;2022-10-16T01:12:02;96569.16;;;12.53;100.00
11001;BME280;5553;48.506;8.870;2022-10-16T01:14:40;96564.09;;;12.51;100.00
11001;BME280;5553;48.506;8.870;2022-10-16T01:17:12;96571.63;;;12.41;100.00
11001;BME280;5553;48.506;8.870;2022-10-16T01:20:03;96564.66;;;12.33;100.00
11001;BME280;5553;48.506;8.870;2022-10-16T01:22:38;96571.38;;;12.29;100.00
11001;BME280;5553;48.506;8.870;2022-10-16T01:25:12;96578.09;;;12.25;100.00
11001;BME280;5553;48.506;8.870;2022-10-16T01:27:47;96577.66;;;12.22;100.00
11001;BME280;5553;48.506;8.870;2022-10-16T01:30:20;96590.69;;;12.30;100.00
11001;BME280;5553;48.506;8.870;2022-10-16T01:32:52;96596.78;;;12.17;100.00
11001;BME280;5553;48.506;8.870;2022-10-16T01:35:27;96590.66;;;12.17;100.00
11001;BME280;5553;48.506;8.870;2022-10-16T01:38:01;96601.06;;;12.18;100.00
11001;BME280;5553;48.506;8.870;2022-10-16T01:40:33;96609.41;;;12.22;100.00
11001;BME280;5553;48.506;8.870;2022-10-16T01:43:08;96614.72;;;12.28;100.00
11001;BME280;5553;48.506;8.870;2022-10-16T01:45:40;96612.88;;;12.22;100.00
11001;BME280;5553;48.506;8.870;2022-10-16T01:48:12;96616.31;;;12.23;100.00
11001;BME280;5553;48.506;8.870;2022-10-16T01:50:44;96624.06;;;12.24;100.00
11001;BME280;5553;48.506;8.870;2022-10-16T01:53:14;96622.63;;;12.22;100.00
11001;BME280;5553;48.506;8.870;2022-10-16T01:55:46;96630.34;;;12.23;100.00
11001;BME280;5553;48.506;8.870;2022-10-16T01:58:18;96630.16;;;12.25;100.00
11001;BME280;5553;48.506;8.870;2022-10-16T02:00:47;96626.91;;;12.29;100.00
11001;BME280;5553;48.506;8.870;2022-10-16T02:03:17;96627.72;;;12.30;100.00
11001;BME280;5553;48.506;8.870;2022-10-16T02:05:49;96625.72;;;12.39;100.00
11001;BME280;5553;48.506;8.870;2022-10-16T02:08:19;96609.88;;;12.45;100.00
11001;BME280;5553;48.506;8.870;2022-10-16T02:10:48;96617.19;;;12.43;100.00
11001;BME280;5553;48.506;8.870;2022-10-16T02:13:23;96608.66;;;12.41;100.00
11001;BME280;5553;48.506;8.870;2022-10-16T02:15:53;96614.75;;;12.42;100.00
11001;BME280;5553;48.506;8.870;2022-10-16T02:18:22;96619.44;;;12.46;100.00
11001;BME280;5553;48.506;8.870;2022-10-16T02:20:57;96613.72;;;12.43;100.00
11001;BME280;5553;48.506;8.870;2022-10-16T02:23:35;96611.06;;;12.29;100.00
11001;BME280;5553;48.506;8.870;2022-10-16T02:26:09;96616.34;;;12.29;100.00
11001;BME280;5553;48.506;8.870;2022-10-16T02:28:45;96615.31;;;12.30;100.00
11001;BME280;5553;48.506;8.870;2022-10-16T02:31:20;96613.06;;;12.21;100.00
11001;BME280;5553;48.506;8.870;2022-10-16T02:33:52;96618.38;;;12.21;100.00
11001;BME280;5553;48.506;8.870;2022-10-16T02:36:23;96628.09;;;12.14;100.00
11001;BME280;5553;48.506;8.870;2022-10-16T02:38:52;96623.25;;;12.30;100.00
11001;BME280;5553;48.506;8.870;2022-10-16T02:41:21;96621.47;;;12.51;100.00
11001;BME280;5553;48.506;8.870;2022-10-16T02:43:52;96611.31;;;12.61;100.00
11001;BME280;5553;48.506;8.870;2022-10-16T02:46:21;96605.63;;;12.77;100.00
11001;BME280;5553;48.506;8.870;2022-10-16T02:48:49;96590.97;;;12.68;100.00
11001;BME280;5553;48.506;8.870;2022-10-16T02:51:17;96588.72;;;12.59;100.00
11001;BME280;5553;48.506;8.870;2022-10-16T02:53:46;96580.97;;;12.57;100.00
11001;BME280;5553;48.506;8.870;2022-10-16T02:56:14;96579.75;;;12.53;100.00
11001;BME280;5553;48.506;8.870;2022-10-16T02:58:42;96577.34;;;12.58;100.00
11001;BME280;5553;48.506;8.870;2022-10-16T03:01:13;96575.91;;;12.62;100.00
11001;BME280;5553;48.506;8.870;2022-10-16T03:03:42;96581.22;;;12.75;100.00
11001;BME280;5553;48.506;8.870;2022-10-16T03:06:10;96576.31;;;12.72;100.00
11001;BME280;5553;48.506;8.870;2022-10-16T03:08:39;96582.59;;;12.65;100.00
11001;BME280;5553;48.506;8.870;2022-10-16T03:11:07;96580.56;;;12.60;100.00
11001;BME280;5553;48.506;8.870;2022-10-16T03:13:36;96581.38;;;12.61;100.00
11001;BME280;5553;48.506;8.870;2022-10-16T03:16:04;96585.28;;;12.58;100.00
11001;BME280;5553;48.506;8.870;2022-10-16T03:18:35;96587.69;;;12.53;100.00
11001;BME280;5553;48.506;8.870;2022-10-16T03:21:03;96587.69;;;12.46;100.00
11001;BME280;5553;48.506;8.870;2022-10-16T03:23:32;96597.63;;;12.44;100.00
11001;BME280;5553;48.506;8.870;2022-10-16T03:26:00;96602.53;;;12.47;100.00
11001;BME280;5553;48.506;8.870;2022-10-16T03:28:28;96602.75;;;12.52;100.00
11001;BME280;5553;48.506;8.870;2022-10-16T03:30:57;96603.34;;;12.54;100.00
11001;BME280;5553;48.506;8.870;2022-10-16T03:33:25;96598.09;;;12.48;100.00
11001;BME280;5553;48.506;8.870;2022-10-16T03:35:57;96603.97;;;12.50;100.00
11001;BME280;5553;48.506;8.870;2022-10-16T03:38:25;96602.38;;;12.55;100.00
11001;BME280;5553;48.506;8.870;2022-10-16T03:40:53;96604.59;;;12.52;100.00
11001;BME280;5553;48.506;8.870;2022-10-16T03:43:22;96593.59;;;12.48;100.00
11001;BME280;5553;48.506;8.870;2022-10-16T03:45:50;96600.91;;;12.40;100.00
11001;BME280;5553;48.506;8.870;2022-10-16T03:48:19;96595.41;;;12.35;100.00
11001;BME280;5553;48.506;8.870;2022-10-16T03:50:47;96612.28;;;12.33;100.00
11001;BME280;5553;48.506;8.870;2022-10-16T03:53:19;96623.06;;;12.25;100.00
11001;BME280;5553;48.506;8.870;2022-10-16T03:55:47;96631.38;;;12.22;100.00
11001;BME280;5553;48.506;8.870;2022-10-16T03:58:16;96631.19;;;12.30;100.00
11001;BME280;5553;48.506;8.870;2022-10-16T04:00:46;96626.16;;;12.42;100.00
11001;BME280;5553;48.506;8.870;2022-10-16T04:03:15;96626.34;;;12.41;100.00
11001;BME280;5553;48.506;8.870;2022-10-16T04:05:44;96624.53;;;12.41;100.00
11001;BME280;5553;48.506;8.870;2022-10-16T04:08:12;96615.16;;;12.39;100.00
11001;BME280;5553;48.506;8.870;2022-10-16T04:10:44;96618.97;;;12.29;100.00
11001;BME280;5553;48.506;8.870;2022-10-16T04:13:13;96623.25;;;12.30;100.00
11001;BME280;5553;48.506;8.870;2022-10-16T04:15:42;96628.16;;;12.33;100.00
11001;BME280;5553;48.506;8.870;2022-10-16T04:18:10;96623.66;;;12.34;100.00
11001;BME280;5553;48.506;8.870;2022-10-16T04:20:38;96616.34;;;12.36;100.00
11001;BME280;5553;48.506;8.870;2022-10-16T04:23:07;96616.97;;;12.38;100.00
11001;BME280;5553;48.506;8.870;2022-10-16T04:25:35;96620.84;;;12.36;100.00
11001;BME280;5553;48.506;8.870;2022-10-16T04:28:06;96624.09;;;12.31;100.00
11001;BME280;5553;48.506;8.870;2022-10-16T04:30:37;96635.88;;;12.28;100.00
11001;BME280;5553;48.506;8.870;2022-10-16T04:33:05;96639.56;;;12.27;100.00
11001;BME280;5553;48.506;8.870;2022-10-16T04:35:34;96646.84;;;12.25;100.00
11001;BME280;5553;48.506;8.870;2022-10-16T04:38:02;96653.59;;;12.28;100.00
11001;BME280;5553;48.506;8.870;2022-10-16T04:40:31;96657.81;;;12.22;100.00
11001;BME280;5553;48.506;8.870;2022-10-16T04:43:01;96659.84;;;12.20;100.00
11001;BME280;5553;48.506;8.870;2022-10-16T04:45:32;96670.81;;;12.11;100.00
11001;BME280;5553;48.506;8.870;2022-10-16T04:48:01;96672.00;;;12.08;100.00
11001;BME280;5553;48.506;8.870;2022-10-16T04:50:29;96680.53;;;12.10;100.00
11001;BME280;5553;48.506;8.870;2022-10-16T04:52:58;96678.31;;;12.07;100.00
11001;BME280;5553;48.506;8.870;2022-10-16T04:55:26;96687.66;;;12.09;100.00
11001;BME280;5553;48.506;8.870;2022-10-16T04:57:54;96682.78;;;12.06;100.00
11001;BME280;5553;48.506;8.870;2022-10-16T05:00:23;96686.88;;;12.16;100.00
11001;BME280;5553;48.506;8.870;2022-10-16T05:02:54;96679.00;;;12.22;100.00
11001;BME280;5553;48.506;8.870;2022-10-16T05:05:25;96674.94;;;12.26;100.00
11001;BME280;5553;48.506;8.870;2022-10-16T05:07:53;96677.56;;;12.26;100.00
11001;BME280;5553;48.506;8.870;2022-10-16T05:10:22;96668.00;;;12.25;100.00
11001;BME280;5553;48.506;8.870;2022-10-16T05:12:50;96671.22;;;12.14;100.00
11001;BME280;5553;48.506;8.870;2022-10-16T05:15:19;96674.69;;;12.15;100.00
11001;BME280;5553;48.506;8.870;2022-10-16T05:17:54;96677.69;;;12.05;100.00
11001;BME280;5553;48.506;8.870;2022-10-16T05:20:23;96685.38;;;12.00;100.00
11001;BME280;5553;48.506;8.870;2022-10-16T05:22:51;96679.06;;;11.94;100.00
11001;BME280;5553;48.506;8.870;2022-10-16T05:25:20;96683.28;;;11.89;100.00
11001;BME280;5553;48.506;8.870;2022-10-16T05:27:48;96686.91;;;11.81;100.00
11001;BME280;5553;48.506;8.870;2022-10-16T05:30:17;96699.91;;;11.82;100.00
11001;BME280;5553;48.506;8.870;2022-10-16T05:32:46;96704.28;;;11.69;100.00
11001;BME280;5553;48.506;8.870;2022-10-16T05:35:18;96713.72;;;11.78;100.00
11001;BME280;5553;48.506;8.870;2022-10-16T05:37:47;96719.34;;;11.68;100.00
11001;BME280;5553;48.506;8.870;2022-10-16T05:40:15;96718.72;;;11.66;100.00
11001;BME280;5553;48.506;8.870;2022-10-16T05:42:44;96723.34;;;11.85;100.00
11001;BME280;5553;48.506;8.870;2022-10-16T05:45:12;96723.91;;;11.81;100.00
11001;BME280;5553;48.506;8.870;2022-10-16T05:47:40;96738.94;;;11.80;100.00
11001;BME280;5553;48.506;8.870;2022-10-16T05:50:09;96733.22;;;11.77;100.00
11001;BME280;5553;48.506;8.870;2022-10-16T05:52:40;96739.31;;;11.77;100.00
11001;BME280;5553;48.506;8.870;2022-10-16T05:55:08;96749.25;;;11.75;100.00
11001;BME280;5553;48.506;8.870;2022-10-16T05:57:37;96756.75;;;11.72;100.00
11001;BME280;5553;48.506;8.870;2022-10-16T06:00:06;96752.28;;;11.72;100.00
11001;BME280;5553;48.506;8.870;2022-10-16T06:02:35;96765.56;;;11.79;100.00
11001;BME280;5553;48.506;8.870;2022-10-16T06:05:03;96766.19;;;11.81;100.00
11001;BME280;5553;48.506;8.870;2022-10-16T06:07:34;96765.06;;;11.90;100.00
11001;BME280;5553;48.506;8.870;2022-10-16T06:10:06;96766.69;;;11.91;100.00
11001;BME280;5553;48.506;8.870;2022-10-16T06:12:35;96768.97;;;11.94;100.00
11001;BME280;5553;48.506;8.870;2022-10-16T06:15:04;96769.97;;;11.93;100.00
11001;BME280;5553;48.506;8.870;2022-10-16T06:17:32;96759.59;;;11.92;100.00
11001;BME280;5553;48.506;8.870;2022-10-16T06:20:01;96761.88;;;12.01;100.00
11001;BME280;5553;48.506;8.870;2022-10-16T06:22:29;96759.88;;;12.03;100.00
11001;BME280;5553;48.506;8.870;2022-10-16T06:24:57;96767.25;;;12.15;100.00
11001;BME280;5553;48.506;8.870;2022-10-16T06:27:28;96768.28;;;12.20;100.00
11001;BME280;5553;48.506;8.870;2022-10-16T06:29:56;96781.56;;;12.27;100.00
11001;BME280;5553;48.506;8.870;2022-10-16T06:32:25;96779.56;;;12.36;100.00
11001;BME280;5553;48.506;8.870;2022-10-16T06:34:53;96786.09;;;12.40;100.00
11001;BME280;5553;48.506;8.870;2022-10-16T06:37:21;96793.84;;;12.41;100.00
11001;BME280;5553;48.506;8.870;2022-10-16T06:39:50;96782.88;;;12.51;100.00
11001;BME280;5553;48.506;8.870;2022-10-16T06:42:19;96778.47;;;12.65;100.00
11001;BME280;5553;48.506;8.870;2022-10-16T06:44:50;96782.16;;;12.70;100.00
11001;BME280;5553;48.506;8.870;2022-10-16T06:47:18;96780.34;;;12.71;100.00
11001;BME280;5553;48.506;8.870;2022-10-16T06:49:46;96773.22;;;12.78;100.00
11001;BME280;5553;48.506;8.870;2022-10-16T06:52:15;96774.66;;;12.80;100.00
11001;BME280;5553;48.506;8.870;2022-10-16T06:54:43;96776.53;;;12.87;100.00
11001;BME280;5553;48.506;8.870;2022-10-16T06:57:11;96765.97;;;12.93;100.00
11001;BME280;5553;48.506;8.870;2022-10-16T06:59:40;96776.31;;;12.88;100.00
11001;BME280;5553;48.506;8.870;2022-10-16T07:02:11;96765.19;;;13.06;100.00
11001;BME280;5553;48.506;8.870;2022-10-16T07:04:39;96768.84;;;13.12;100.00
11001;BME280;5553;48.506;8.870;2022-10-16T07:07:07;96759.44;;;13.09;100.00
11001;BME280;5553;48.506;8.870;2022-10-16T07:09:36;96768.41;;;13.08;100.00
11001;BME280;5553;48.506;8.870;2022-10-16T07:12:04;96775.34;;;13.02;100.00
11001;BME280;5553;48.506;8.870;2022-10-16T07:14:33;96775.50;;;12.88;100.00
11001;BME280;5553;48.506;8.870;2022-10-16T07:17:01;96788.75;;;12.94;100.00
11001;BME280;5553;48.506;8.870;2022-10-16T07:19:32;96789.63;;;13.08;100.00
11001;BME280;5553;48.506;8.870;2022-10-16T07:22:01;96798.78;;;13.12;100.00
11001;BME280;5553;48.506;8.870;2022-10-16T07:24:30;96801.28;;;13.20;100.00
11001;BME280;5553;48.506;8.870;2022-10-16T07:26:58;96796.81;;;13.27;100.00
11001;BME280;5553;48.506;8.870;2022-10-16T07:29:26;96804.78;;;13.34;100.00
11001;BME280;5553;48.506;8.870;2022-10-16T07:32:19;96814.19;;;13.57;100.00
11001;BME280;5553;48.506;8.870;2022-10-16T07:34:50;96807.66;;;13.72;100.00
11001;BME280;5553;48.506;8.870;2022-10-16T07:37:18;96784.44;;;13.81;100.00
11001;BME280;5553;48.506;8.870;2022-10-16T07:39:47;96771.34;;;13.93;100.00
11001;BME280;5553;48.506;8.870;2022-10-16T07:42:15;96760.72;;;14.06;100.00
11001;BME280;5553;48.506;8.870;2022-10-16T07:44:45;96750.50;;;14.16;100.00
11001;BME280;5553;48.506;8.870;2022-10-16T07:47:13;96752.72;;;14.26;100.00
11001;BME280;5553;48.506;8.870;2022-10-16T07:49:42;96756.16;;;14.33;100.00
11001;BME280;5553;48.506;8.870;2022-10-16T07:52:12;96755.53;;;14.38;100.00
11001;BME280;5553;48.506;8.870;2022-10-16T07:54:41;96759.59;;;14.47;100.00
11001;BME280;5553;48.506;8.870;2022-10-16T07:57:09;96749.97;;;14.46;100.00
11001;BME280;5553;48.506;8.870;2022-10-16T07:59:43;96745.94;;;14.50;100.00
11001;BME280;5553;48.506;8.870;2022-10-16T08:02:12;96743.44;;;14.55;100.00
11001;BME280;5553;48.506;8.870;2022-10-16T08:04:40;96743.19;;;14.70;100.00
11001;BME280;5553;48.506;8.870;2022-10-16T08:07:08;96732.31;;;14.78;100.00
11001;BME280;5553;48.506;8.870;2022-10-16T08:09:39;96734.09;;;14.91;100.00
11001;BME280;5553;48.506;8.870;2022-10-16T08:12:08;96728.78;;;14.91;100.00
11001;BME280;5553;48.506;8.870;2022-10-16T08:14:36;96707.13;;;14.94;100.00
11001;BME280;5553;48.506;8.870;2022-10-16T08:17:04;96704.31;;;15.14;100.00
11001;BME280;5553;48.506;8.870;2022-10-16T08:19:33;96696.72;;;15.17;100.00
11001;BME280;5553;48.506;8.870;2022-10-16T08:22:01;96692.00;;;15.20;100.00
11001;BME280;5553;48.506;8.870;2022-10-16T08:24:29;96694.84;;;15.25;100.00
11001;BME280;5553;48.506;8.870;2022-10-16T08:27:02;96702.81;;;15.25;100.00
11001;BME280;5553;48.506;8.870;2022-10-16T08:29:32;96700.63;;;15.15;100.00
11001;BME280;5553;48.506;8.870;2022-10-16T08:32:00;96706.91;;;15.21;100.00
11001;BME280;5553;48.506;8.870;2022-10-16T08:34:29;96713.44;;;15.25;100.00
11001;BME280;5553;48.506;8.870;2022-10-16T08:36:57;96717.44;;;15.34;100.00
11001;BME280;5553;48.506;8.870;2022-10-16T08:39:25;96718.44;;;15.39;100.00
11001;BME280;5553;48.506;8.870;2022-10-16T08:42:11;96713.97;;;15.33;100.00
11001;BME280;5553;48.506;8.870;2022-10-16T08:47:49;96705.78;;;15.35;100.00
11001;BME280;5553;48.506;8.870;2022-10-16T08:50:24;96707.56;;;15.41;100.00
11001;BME280;5553;48.506;8.870;2022-10-16T08:52:53;96714.88;;;15.52;100.00
11001;BME280;5553;48.506;8.870;2022-10-16T08:55:31;96706.75;;;15.65;100.00
11001;BME280;5553;48.506;8.870;2022-10-16T08:58:11;96706.28;;;15.75;100.00
11001;BME280;5553;48.506;8.870;2022-10-16T09:00:40;96721.31;;;15.88;100.00
11001;BME280;5553;48.506;8.870;2022-10-16T09:03:17;96720.81;;;15.98;100.00
11001;BME280;5553;48.506;8.870;2022-10-16T09:06:02;96727.63;;;16.12;100.00
11001;BME280;5553;48.506;8.870;2022-10-16T09:08:44;96723.56;;;16.46;100.00
11001;BME280;5553;48.506;8.870;2022-10-16T09:11:22;96702.94;;;17.67;100.00
11001;BME280;5553;48.506;8.870;2022-10-16T09:14:04;96697.03;;;17.53;100.00
11001;BME280;5553;48.506;8.870;2022-10-16T09:16:36;96689.59;;;17.32;100.00
11001;BME280;5553;48.506;8.870;2022-10-16T09:19:13;96693.00;;;16.97;100.00
11001;BME280;5553;48.506;8.870;2022-10-16T09:21:44;96694.72;;;17.34;100.00
11001;BME280;5553;48.506;8.870;2022-10-16T09:24:15;96687.72;;;18.79;100.00
11001;BME280;5553;48.506;8.870;2022-10-16T09:26:44;96691.09;;;18.22;100.00
11001;BME280;5553;48.506;8.870;2022-10-16T09:29:17;96683.88;;;17.82;100.00
11001;BME280;5553;48.506;8.870;2022-10-16T09:31:46;96689.50;;;17.50;100.00
11001;BME280;5553;48.506;8.870;2022-10-16T09:34:21;96681.34;;;17.22;100.00
11001;BME280;5553;48.506;8.870;2022-10-16T09:36:53;96692.50;;;17.42;100.00
11001;BME280;5553;48.506;8.870;2022-10-16T09:39:22;96687.97;;;17.31;100.00
11001;BME280;5553;48.506;8.870;2022-10-16T09:41:50;96683.19;;;17.10;100.00
11001;BME280;5553;48.506;8.870;2022-10-16T09:44:26;96686.16;;;18.54;100.00
11001;BME280;5553;48.506;8.870;2022-10-16T09:47:03;96685.69;;;19.31;100.00
11001;BME280;5553;48.506;8.870;2022-10-16T09:49:31;96688.69;;;19.01;100.00
11001;BME280;5553;48.506;8.870;2022-10-16T09:52:03;96697.44;;;19.30;100.00
11001;BME280;5553;48.506;8.870;2022-10-16T09:54:32;96684.06;;;19.30;100.00
11001;BME280;5553;48.506;8.870;2022-10-16T09:57:07;96703.97;;;20.46;100.00
11001;BME280;5553;48.506;8.870;2022-10-16T09:59:49;96673.25;;;21.67;95.76
11001;BME280;5553;48.506;8.870;2022-10-16T10:02:19;96662.09;;;22.22;88.64
11001;BME280;5553;48.506;8.870;2022-10-16T10:04:50;96666.66;;;19.78;92.24
11001;BME280;5553;48.506;8.870;2022-10-16T10:07:24;96684.75;;;19.71;97.56
11001;BME280;5553;48.506;8.870;2022-10-16T10:09:55;96694.31;;;19.67;100.00
11001;BME280;5553;48.506;8.870;2022-10-16T10:12:25;96681.50;;;19.35;100.00
11001;BME280;5553;48.506;8.870;2022-10-16T10:14:57;96686.13;;;19.40;100.00
11001;BME280;5553;48.506;8.870;2022-10-16T10:17:28;96702.50;;;20.55;100.00
11001;BME280;5553;48.506;8.870;2022-10-16T10:19:57;96686.66;;;21.99;93.68
11001;BME280;5553;48.506;8.870;2022-10-16T10:22:29;96672.22;;;21.09;89.82
11001;BME280;5553;48.506;8.870;2022-10-16T10:25:07;96675.28;;;21.87;87.58
11001;BME280;5553;48.506;8.870;2022-10-16T10:27:47;96661.63;;;22.41;83.86
11001;BME280;5553;48.506;8.870;2022-10-16T10:30:24;96668.56;;;21.47;87.12
11001;BME280;5553;48.506;8.870;2022-10-16T10:33:06;96659.81;;;22.62;83.40
11001;BME280;5553;48.506;8.870;2022-10-16T10:35:44;96660.19;;;22.23;84.22
11001;BME280;5553;48.506;8.870;2022-10-16T10:38:26;96657.31;;;22.40;81.47
11001;BME280;5553;48.506;8.870;2022-10-16T10:41:09;96681.66;;;22.81;84.70
11001;BME280;5553;48.506;8.870;2022-10-16T10:43:50;96645.53;;;22.51;80.17
11001;BME280;5553;48.506;8.870;2022-10-16T10:46:32;96654.22;;;22.84;80.70
11001;BME280;5553;48.506;8.870;2022-10-16T10:49:26;96653.16;;;23.92;77.99
11001;BME280;5553;48.506;8.870;2022-10-16T10:52:10;96620.81;;;24.02;73.11
11001;BME280;5553;48.506;8.870;2022-10-16T10:54:48;96615.75;;;23.65;73.49
11001;BME280;5553;48.506;8.870;2022-10-16T10:57:25;96643.53;;;23.50;77.16
11001;BME280;5553;48.506;8.870;2022-10-16T11:00:07;96627.91;;;23.47;74.39
11001;BME280;5553;48.506;8.870;2022-10-16T11:02:48;96620.63;;;23.63;73.31
11001;BME280;5553;48.506;8.870;2022-10-16T11:05:35;96621.13;;;23.91;72.60
11001;BME280;5553;48.506;8.870;2022-10-16T11:08:11;96641.91;;;23.75;75.65
11001;BME280;5553;48.506;8.870;2022-10-16T11:10:47;96609.75;;;22.40;74.28
11001;BME280;5553;48.506;8.870;2022-10-16T11:13:24;96600.28;;;22.22;73.89
11001;BME280;5553;48.506;8.870;2022-10-16T11:15:58;96624.69;;;23.09;74.93
11001;BME280;5553;48.506;8.870;2022-10-16T11:18:40;96588.91;;;23.14;70.84
11001;BME280;5553;48.506;8.870;2022-10-16T11:21:13;96592.91;;;23.52;69.92
11001;BME280;5553;48.506;8.870;2022-10-16T11:23:46;96585.16;;;22.94;70.05
11001;BME280;5553;48.506;8.870;2022-10-16T11:26:20;96624.53;;;24.22;71.10
11001;BME280;5553;48.506;8.870;2022-10-16T11:28:50;96584.31;;;23.25;69.90
11001;BME280;5553;48.506;8.870;2022-10-16T11:31:25;96579.50;;;23.01;69.25
11001;BME280;5553;48.506;8.870;2022-10-16T11:34:04;96563.06;;;23.13;66.75
11001;BME280;5553;48.506;8.870;2022-10-16T11:36:39;96572.44;;;23.51;67.44
11001;BME280;5553;48.506;8.870;2022-10-16T11:39:17;96578.91;;;23.35;68.51
11001;BME280;5553;48.506;8.870;2022-10-16T11:41:50;96566.81;;;23.27;67.78
11001;BME280;5553;48.506;8.870;2022-10-16T11:44:32;96600.13;;;23.82;68.43
11001;BME280;5553;48.506;8.870;2022-10-16T11:47:09;96580.00;;;23.34;69.52
11001;BME280;5553;48.506;8.870;2022-10-16T11:49:44;96598.81;;;23.80;69.14
11001;BME280;5553;48.506;8.870;2022-10-16T11:52:19;96590.47;;;23.76;68.74
11001;BME280;5553;48.506;8.870;2022-10-16T11:54:54;96564.16;;;23.12;67.38
11001;BME280;5553;48.506;8.870;2022-10-16T11:57:27;96556.88;;;23.17;66.27
11001;BME280;5553;48.506;8.870;2022-10-16T11:59:58;96577.00;;;23.61;67.10
11001;BME280;5553;48.506;8.870;2022-10-16T12:05:29;96581.97;;;24.19;66.81
11001;BME280;5553;48.506;8.870;2022-10-16T12:08:06;96553.03;;;24.45;64.63
11001;BME280;5553;48.506;8.870;2022-10-16T12:10:37;96575.34;;;24.50;64.73
11001;BME280;5553;48.506;8.870;2022-10-16T12:13:30;96558.13;;;24.46;63.67
11001;BME280;5553;48.506;8.870;2022-10-16T12:16:07;96564.66;;;23.39;65.90
11001;BME280;5553;48.506;8.870;2022-10-16T12:18:48;96573.94;;;24.03;64.92
11001;BME280;5553;48.506;8.870;2022-10-16T12:21:30;96589.41;;;24.37;65.77
11001;BME280;5553;48.506;8.870;2022-10-16T12:24:00;96550.88;;;25.97;59.31
11001;BME280;5553;48.506;8.870;2022-10-16T12:26:31;96530.19;;;25.88;58.00
11001;BME280;5553;48.506;8.870;2022-10-16T12:29:13;96540.53;;;25.81;58.65
11001;BME280;5553;48.506;8.870;2022-10-16T12:31:44;96507.91;;;26.58;54.91
11001;BME280;5553;48.506;8.870;2022-10-16T12:34:22;96536.31;;;25.45;59.07
11001;BME280;5553;48.506;8.870;2022-10-16T15:20:15;96597.59;;;22.22;66.11
11001;BME280;5553;48.506;8.870;2022-10-16T15:22:43;96567.50;;;22.26;63.29
11001;BME280;5553;48.506;8.870;2022-10-16T15:25:25;96551.38;;;22.15;62.53
11001;BME280;5553;48.506;8.870;2022-10-16T15:27:55;96565.53;;;22.06;63.42
11001;BME280;5553;48.506;8.870;2022-10-16T15:30:24;96586.84;;;22.28;65.59
11001;BME280;5553;48.506;8.870;2022-10-16T15:32:52;96615.72;;;22.00;68.57
11001;BME280;5553;48.506;8.870;2022-10-16T15:35:23;96621.16;;;22.10;68.88
11001;BME280;5553;48.506;8.870;2022-10-16T15:37:51;96599.28;;;21.91;67.96
11001;BME280;5553;48.506;8.870;2022-10-16T15:40:20;96606.53;;;21.86;67.72
11001;BME280;5553;48.506;8.870;2022-10-16T15:42:49;96598.97;;;21.77;66.94
11001;BME280;5553;48.506;8.870;2022-10-16T15:45:17;96603.91;;;21.53;67.92
11001;BME280;5553;48.506;8.870;2022-10-16T15:47:47;96625.81;;;21.35;70.00
11001;BME280;5553;48.506;8.870;2022-10-16T15:50:16;96626.63;;;21.09;70.86
11001;BME280;5553;48.506;8.870;2022-10-16T15:52:47;96621.69;;;21.27;69.28
11001;BME280;5553;48.506;8.870;2022-10-16T15:55:15;96630.69;;;21.11;70.32
11001;BME280;5553;48.506;8.870;2022-10-16T15:57:44;96631.75;;;21.37;70.32
11001;BME280;5553;48.506;8.870;2022-10-16T16:00:15;96650.31;;;21.17;71.79
11001;BME280;5553;48.506;8.870;2022-10-16T16:02:49;96636.69;;;21.23;71.12
11001;BME280;5553;48.506;8.870;2022-10-16T16:05:19;96648.63;;;21.38;70.60
11001;BME280;5553;48.506;8.870;2022-10-16T16:07:51;96639.81;;;21.42;70.27
11001;BME280;5553;48.506;8.870;2022-10-16T16:10:19;96646.56;;;21.50;70.33
11001;BME280;5553;48.506;8.870;2022-10-16T16:12:49;96645.00;;;21.54;70.30
11001;BME280;5553;48.506;8.870;2022-10-16T16:15:19;96641.97;;;21.40;70.69